createdAt,value
2023-03-22T00:00:57.770Z,99.90
2023-03-22T00:03:25.830Z,99.90
2023-03-22T00:05:58.630Z,99.90
2023-03-22T00:08:26.508Z,99.90
2023-03-22T00:10:54.226Z,99.90
2023-03-22T00:13:22.082Z,99.90
2023-03-22T00:15:51.146Z,99.90
2023-03-22T00:18:19.357Z,99.90
2023-03-22T00:20:51.219Z,99.90
2023-03-22T00:23:19.398Z,99.90
2023-03-22T00:25:48.100Z,99.90
2023-03-22T00:28:17.090Z,99.90
2023-03-22T00:30:52.832Z,99.90
2023-03-22T00:33:20.700Z,99.90
2023-03-22T00:35:52.907Z,99.90
2023-03-22T00:38:27.213Z,99.90
2023-03-22T00:41:06.537Z,99.90
2023-03-22T00:43:34.275Z,99.90
2023-03-22T00:46:03.370Z,99.90
2023-03-22T00:48:31.236Z,99.90
2023-03-22T00:50:59.169Z,99.90
2023-03-22T00:53:29.059Z,99.90
2023-03-22T00:55:57.099Z,99.90
2023-03-22T00:58:24.836Z,99.90
2023-03-22T01:00:53.055Z,99.90
2023-03-22T01:03:22.807Z,99.90
2023-03-22T01:05:55.478Z,99.90
2023-03-22T01:08:23.563Z,99.90
2023-03-22T01:10:51.654Z,99.90
2023-03-22T01:13:19.963Z,99.90
2023-03-22T01:15:51.193Z,99.90
2023-03-22T01:18:19.342Z,99.90
2023-03-22T01:20:48.379Z,99.90
2023-03-22T01:23:16.261Z,99.90
2023-03-22T01:25:44.205Z,99.90
2023-03-22T01:28:11.927Z,99.90
2023-03-22T01:30:40.928Z,99.90
2023-03-22T01:33:09.403Z,99.90
2023-03-22T01:35:37.676Z,99.90
2023-03-22T01:38:06.732Z,99.90
2023-03-22T01:40:35.015Z,99.90
2023-03-22T01:43:03.112Z,99.90
2023-03-22T01:45:37.101Z,99.90
2023-03-22T01:48:10.968Z,99.90
2023-03-22T01:50:42.559Z,99.90
2023-03-22T01:53:13.742Z,99.90
2023-03-22T01:55:42.736Z,99.90
2023-03-22T01:58:10.845Z,99.90
2023-03-22T02:00:38.833Z,99.90
2023-03-22T02:03:07.794Z,99.90
2023-03-22T02:05:37.570Z,99.90
2023-03-22T02:08:06.503Z,99.90
2023-03-22T02:10:35.699Z,99.90
2023-03-22T02:13:17.777Z,99.90
2023-03-22T02:15:49.934Z,99.90
2023-03-22T02:18:29.882Z,99.90
2023-03-22T02:21:27.987Z,99.90
2023-03-22T02:24:24.782Z,99.90
2023-03-22T02:27:24.549Z,99.90
2023-03-22T02:30:01.774Z,99.90
2023-03-22T02:33:02.330Z,99.90
2023-03-22T02:35:53.095Z,99.90
2023-03-22T02:38:57.670Z,99.90
2023-03-22T02:41:37.105Z,99.90
2023-03-22T02:44:09.947Z,99.90
2023-03-22T02:46:45.940Z,99.90
2023-03-22T02:49:19.381Z,99.90
2023-03-22T02:51:50.170Z,99.90
2023-03-22T02:54:21.701Z,99.90
2023-03-22T02:56:57.688Z,99.90
2023-03-22T02:59:27.733Z,99.90
2023-03-22T03:01:58.666Z,99.90
2023-03-22T03:04:31.695Z,99.90
2023-03-22T03:07:04.926Z,99.90
2023-03-22T03:09:34.053Z,99.90
2023-03-22T03:12:03.219Z,99.90
2023-03-22T03:14:32.736Z,99.90
2023-03-22T03:17:11.894Z,99.90
2023-03-22T03:19:46.317Z,99.90
2023-03-22T03:38:02.398Z,99.90
2023-03-22T03:40:31.999Z,99.90
2023-03-22T03:43:03.401Z,99.90
2023-03-22T03:45:31.785Z,99.90
2023-03-22T03:48:02.540Z,99.90
2023-03-22T03:50:30.712Z,99.90
2023-03-22T03:52:58.939Z,99.90
2023-03-22T03:55:30.179Z,99.90
2023-03-22T03:57:58.230Z,99.90
2023-03-22T04:00:26.080Z,99.90
2023-03-22T04:02:53.776Z,99.90
2023-03-22T04:05:21.540Z,99.90
2023-03-22T04:07:49.263Z,99.90
2023-03-22T04:10:17.121Z,99.90
2023-03-22T04:12:46.166Z,99.90
2023-03-22T04:15:14.072Z,99.90
2023-03-22T04:17:41.882Z,99.90
2023-03-22T04:20:12.959Z,99.90
2023-03-22T04:22:41.885Z,99.90
2023-03-22T04:25:12.123Z,99.90
2023-03-22T04:27:41.124Z,99.90
2023-03-22T04:30:12.633Z,99.90
2023-03-22T04:32:40.444Z,99.90
2023-03-22T04:35:08.656Z,99.90
2023-03-22T04:37:36.469Z,99.90
2023-03-22T04:40:07.825Z,99.90
2023-03-22T04:42:36.015Z,99.90
2023-03-22T04:45:04.595Z,99.90
2023-03-22T04:47:33.760Z,99.90
2023-03-22T04:50:01.570Z,99.90
2023-03-22T04:52:29.320Z,99.90
2023-03-22T04:54:57.023Z,99.90
2023-03-22T04:57:24.973Z,99.90
2023-03-22T04:59:52.746Z,99.90
2023-03-22T05:02:20.512Z,99.90
2023-03-22T05:04:49.680Z,99.90
2023-03-22T05:07:17.395Z,99.90
2023-03-22T05:09:45.120Z,99.90
2023-03-22T05:12:12.991Z,99.90
2023-03-22T05:14:40.760Z,99.90
2023-03-22T05:17:08.468Z,99.90
2023-03-22T05:19:36.456Z,99.90
2023-03-22T05:22:05.519Z,99.90
2023-03-22T05:24:33.261Z,99.90
2023-03-22T05:27:03.676Z,99.90
2023-03-22T05:29:37.069Z,99.90
2023-03-22T05:32:05.049Z,99.90
2023-03-22T05:34:35.988Z,99.90
2023-03-22T05:37:05.216Z,99.90
2023-03-22T05:39:33.352Z,99.90
2023-03-22T05:42:01.241Z,99.90
2023-03-22T05:44:29.131Z,99.90
2023-03-22T05:46:56.915Z,99.90
2023-03-22T05:49:24.743Z,99.90
2023-03-22T05:51:52.508Z,99.90
2023-03-22T05:54:21.559Z,99.90
2023-03-22T05:56:49.282Z,99.90
2023-03-22T05:59:17.053Z,99.90
2023-03-22T06:01:44.931Z,99.90
2023-03-22T06:04:12.697Z,99.90
2023-03-22T06:06:41.858Z,99.90
2023-03-22T06:09:16.810Z,99.90
2023-03-22T06:11:46.832Z,99.90
2023-03-22T06:14:14.580Z,99.90
2023-03-22T06:16:42.330Z,99.90
2023-03-22T06:19:10.079Z,99.90
2023-03-22T06:21:37.817Z,99.90
2023-03-22T06:24:06.999Z,99.90
2023-03-22T06:26:34.800Z,99.90
2023-03-22T06:29:04.031Z,99.90
2023-03-22T06:31:31.772Z,99.90
2023-03-22T06:33:59.621Z,99.90
2023-03-22T06:36:27.432Z,99.90
2023-03-22T06:38:55.313Z,99.90
2023-03-22T06:41:23.108Z,99.90
2023-03-22T06:43:50.873Z,99.90
2023-03-22T06:46:19.968Z,99.90
2023-03-22T06:48:47.743Z,99.90
2023-03-22T06:51:15.518Z,99.90
2023-03-22T06:53:43.232Z,99.90
2023-03-22T06:56:11.203Z,99.90
2023-03-22T06:58:39.030Z,99.90
2023-03-22T07:01:06.866Z,99.90
2023-03-22T07:03:35.892Z,99.90
2023-03-22T07:06:03.850Z,99.90
2023-03-22T07:08:31.729Z,99.90
2023-03-22T07:10:59.529Z,99.90
2023-03-22T07:13:27.866Z,99.90
2023-03-22T07:15:57.402Z,99.90
2023-03-22T07:18:26.024Z,99.90
2023-03-22T07:20:55.256Z,99.90
2023-03-22T07:23:23.232Z,99.90
2023-03-22T07:25:52.051Z,99.90
2023-03-22T07:28:19.835Z,99.90
2023-03-22T07:30:47.737Z,99.90
2023-03-22T07:33:15.533Z,99.90
2023-03-22T07:35:43.275Z,99.90
2023-03-22T07:38:13.073Z,99.90
2023-03-22T07:40:40.972Z,99.90
2023-03-22T07:43:12.017Z,99.90
2023-03-22T07:45:40.883Z,99.90
2023-03-22T07:48:11.240Z,99.90
2023-03-22T07:50:39.332Z,99.90
2023-03-22T07:53:07.411Z,99.90
2023-03-22T07:55:36.590Z,99.90
2023-03-22T07:58:04.429Z,99.90
2023-03-22T08:00:32.282Z,99.90
2023-03-22T08:03:00.066Z,99.90
2023-03-22T08:05:27.937Z,99.90
2023-03-22T08:07:56.855Z,99.90
2023-03-22T08:10:24.795Z,99.90
2023-03-22T08:12:53.862Z,99.90
2023-03-22T08:15:22.691Z,99.90
2023-03-22T08:17:50.773Z,99.90
2023-03-22T08:20:19.747Z,99.90
2023-03-22T08:22:47.484Z,99.90
2023-03-22T08:25:15.356Z,99.90
2023-03-22T08:27:43.101Z,99.90
2023-03-22T08:30:13.565Z,99.90
2023-03-22T08:32:41.321Z,99.90
2023-03-22T08:35:10.369Z,99.90
2023-03-22T08:37:38.190Z,99.90
2023-03-22T08:40:08.902Z,99.90
2023-03-22T08:42:36.850Z,99.90
2023-03-22T08:45:05.021Z,99.90
2023-03-22T08:47:34.134Z,99.90
2023-03-22T08:50:01.844Z,99.90
2023-03-22T08:52:29.638Z,99.90
2023-03-22T08:54:57.361Z,99.90
2023-03-22T08:57:27.628Z,99.90
2023-03-22T08:59:56.749Z,99.90
2023-03-22T09:02:25.141Z,99.90
2023-03-22T09:04:54.446Z,99.90
2023-03-22T09:07:22.522Z,99.90
2023-03-22T09:09:50.391Z,99.90
2023-03-22T09:12:18.309Z,99.90
2023-03-22T09:14:48.098Z,96.60
2023-03-22T09:17:15.828Z,95.00
2023-03-22T09:19:43.681Z,88.40
2023-03-22T09:22:12.753Z,90.10
2023-03-22T09:24:40.812Z,86.60
2023-03-22T09:27:08.611Z,79.90
2023-03-22T09:29:36.484Z,74.30
2023-03-22T09:32:04.327Z,73.10
2023-03-22T09:34:32.115Z,74.60
2023-03-22T09:37:02.409Z,77.10
2023-03-22T09:39:31.531Z,77.20
2023-03-22T09:42:03.321Z,74.50
2023-03-22T09:44:35.433Z,73.10
2023-03-22T09:47:06.325Z,65.10
2023-03-22T09:49:52.667Z,69.90
2023-03-22T09:52:21.587Z,68.70
2023-03-22T09:54:52.896Z,64.30
2023-03-22T09:57:26.174Z,63.70
2023-03-22T09:59:59.399Z,64.50
2023-03-22T10:02:40.960Z,65.90
2023-03-22T10:05:19.408Z,71.40
2023-03-22T10:08:06.402Z,73.10
2023-03-22T10:10:35.607Z,70.30
2023-03-22T10:13:08.082Z,75.40
2023-03-22T10:15:39.240Z,72.00
2023-03-22T10:18:09.825Z,66.60
2023-03-22T10:20:43.413Z,67.90
2023-03-22T10:23:16.911Z,69.50
2023-03-22T10:25:46.966Z,70.70
2023-03-22T10:28:19.227Z,71.20
2023-03-22T10:30:53.285Z,73.90
2023-03-22T10:33:29.006Z,73.20
2023-03-22T10:35:57.877Z,73.10
2023-03-22T10:38:28.686Z,72.70
2023-03-22T10:41:00.910Z,76.10
2023-03-22T10:43:32.742Z,87.60
2023-03-22T10:46:03.537Z,86.00
2023-03-22T10:48:34.054Z,81.80
2023-03-22T10:51:03.344Z,75.00
2023-03-22T10:53:38.446Z,71.00
2023-03-22T10:56:13.408Z,70.90
2023-03-22T10:58:41.154Z,78.40
2023-03-22T11:01:10.963Z,80.80
2023-03-22T11:03:41.954Z,74.60
2023-03-22T11:06:12.456Z,74.80
2023-03-22T11:08:42.802Z,73.90
2023-03-22T11:11:19.061Z,77.50
2023-03-22T11:13:52.666Z,81.90
2023-03-22T11:16:21.504Z,79.80
2023-03-22T11:18:49.394Z,78.00
2023-03-22T11:21:19.231Z,79.60
2023-03-22T11:23:55.069Z,87.30
2023-03-22T11:26:30.527Z,90.40
2023-03-22T11:29:05.559Z,87.40
2023-03-22T11:31:56.350Z,84.60
2023-03-22T11:34:27.584Z,90.90
2023-03-22T11:36:57.503Z,96.30
2023-03-22T11:39:28.349Z,99.80
2023-03-22T11:42:01.529Z,99.90
2023-03-22T11:44:34.852Z,99.90
2023-03-22T11:47:05.274Z,99.90
2023-03-22T11:49:41.169Z,99.90
2023-03-22T11:52:12.147Z,99.90
2023-03-22T11:54:42.364Z,99.90
2023-03-22T11:57:16.836Z,99.90
2023-03-22T11:59:50.465Z,99.90
2023-03-22T12:02:24.544Z,99.90
2023-03-22T12:05:00.639Z,99.90
2023-03-22T12:07:31.250Z,99.90
2023-03-22T12:10:04.223Z,99.90
2023-03-22T12:12:37.800Z,99.90
2023-03-22T12:15:09.316Z,99.90
2023-03-22T12:17:43.964Z,99.90
2023-03-22T12:20:20.697Z,99.90
2023-03-22T12:22:52.996Z,99.90
2023-03-22T12:25:24.262Z,99.90
2023-03-22T12:27:56.121Z,99.90
2023-03-22T12:30:26.516Z,99.90
2023-03-22T12:32:59.739Z,99.90
2023-03-22T12:35:30.291Z,99.90
2023-03-22T12:38:01.698Z,99.90
2023-03-22T12:40:34.905Z,99.90
2023-03-22T12:43:11.541Z,99.90
2023-03-22T12:45:42.429Z,99.90
2023-03-22T12:48:16.043Z,99.90
2023-03-22T12:50:48.018Z,99.90
2023-03-22T12:53:18.626Z,99.90
2023-03-22T12:55:48.234Z,99.90
2023-03-22T12:58:21.667Z,99.90
2023-03-22T13:00:53.707Z,99.90
2023-03-22T13:03:27.369Z,99.90
2023-03-22T13:06:04.563Z,99.90
2023-03-22T13:09:16.163Z,99.90
2023-03-22T13:11:45.659Z,99.90
2023-03-22T13:14:56.121Z,99.90
2023-03-22T13:17:43.586Z,99.90
2023-03-22T13:20:28.779Z,99.90
2023-03-22T13:23:18.783Z,99.90
2023-03-22T13:26:02.253Z,99.90
2023-03-22T13:28:36.966Z,99.90
2023-03-22T13:31:07.442Z,99.90
2023-03-22T13:33:37.653Z,99.90
2023-03-22T13:36:09.035Z,99.90
2023-03-22T13:38:42.361Z,99.90
2023-03-22T13:41:21.961Z,99.90
2023-03-22T13:43:51.838Z,99.90
2023-03-22T13:46:50.338Z,99.90
2023-03-22T13:49:39.690Z,99.90
2023-03-22T13:52:09.477Z,99.90
2023-03-22T13:54:42.152Z,99.90
2023-03-22T13:57:18.231Z,99.90
2023-03-22T14:00:12.164Z,99.90
2023-03-22T14:02:43.931Z,99.90
2023-03-22T14:05:16.807Z,99.90
2023-03-22T14:07:48.043Z,99.90
2023-03-22T14:10:20.630Z,99.90
2023-03-22T14:12:52.500Z,99.90
2023-03-22T14:15:24.352Z,99.90
2023-03-22T14:17:57.645Z,99.90
2023-03-22T14:20:28.037Z,99.90
